Arvada, WY (82831)

11:32 AM MST on February 09, 2016 (GMT -0700)
Gillette-Campbell County | | Change Station
CLOSE
Current Station
Airport
Location: Gillette,
Elevation: 4364 ft
Nearby Weather Stations

Elev 4364 ft 44.34 °N, 105.54 °W | Updated 39 minutes ago

Partly Cloudy
Partly Cloudy
45 °F
Feels Like 40 °F
N
10
Wind Variable Wind from West

Today
High -- | Low -- °F
--% Chance of Precip.
Yesterday
High -- | Low -- °F
Precip. -- in
Pressure 30.30 in
Visibility 10.0 miles
Clouds Scattered Clouds 8000 ft
Windchill 40 °F
Dew Point 31 °F
Humidity 58%
Rainfall 0.00 in
Snow Depth Not available.
7:13 AM 5:23 PM
New Moon, 2% visible
METAR KGCC 091753Z AUTO 28009KT 10SM SCT080 07/M01 A3027 RMK AO2 SLP259 T00721006 10072 20000 57001
Pressure 30.30 in
Visibility 10.0 miles
Clouds Scattered Clouds 8000 ft
Windchill 40 °F
Dew Point 31 °F
Humidity 58%
Rainfall 0.00 in
Snow Depth Not available.
7:13 AM 5:23 PM
New Moon, 2% visible
METAR KGCC 091753Z AUTO 28009KT 10SM SCT080 07/M01 A3027 RMK AO2 SLP259 T00721006 10072 20000 57001

10-Day Weather Forecast

Almanac

Astronomy

Feb. 09, 2016 Rise Set
Actual Time
Civil Twilight
Nautical Twilight
Astronomical Twilight
Moon
Length of Visible Light
Length of Day
Tomorrow will be .
, % of the Moon is Illuminated

Today's Extremes

State Highs State Lows

Community

WunderPhotos

Upload Photos

1,891,656 photos uploaded!

WunderBlog® & News

Nearby

Air Quality

  Air Quality AQ Index Pollutant
Not available.

Snow Depth

Station Depth Elevation

Earthquake Activity

City Distance Mag. Time & Date
Minimum magnitude displayed is 2.5.

Coastal Water Temperatures

Place Temperature

Stations

Nearby Weather Stations

Station Location Temp. Windchill Dew Point Humidity Wind Precip. Elev Updated Type
                   

Watches & Warnings

There are currently no watches in effect.